Terminal Aerodrome Forecast
Issued by NWS

Home | Current Version | Previous Version | Text Only | Print | Product List | Glossary On
Versions: 1 2 3 4 5 6 7 8 9 10 11 12 13 14 15 16 17 18 19
937
FTUS44 KEPZ 192338
TAFLRU
TAF
KLRU 192338Z 2000/2024 26012G22KT P6SM SCT060 BKN140 BKN200
      TEMPO 2000/2004 26022G32KT
     FM200700 25011KT P6SM SCT050 BKN120 OVC200
     FM201600 23015G25KT P6SM BKN040 BKN080 OVC200
     FM202000 25025G35KT P6SM VCSH BKN030 BKN060=

USA.gov is the U.S. government's official web portal to all federal, state and local government web resources and services.